ADDS METAR Data INFO
IDs: Format: Raw Decoded Include TAF

Data at: 0705 UTC 19 Oct 2017

KCIR 190655Z AUTO 18005KT 10SM CLR 13/09 A3019 RMK AO2 T01260091
KCIR 190635Z AUTO 18005KT 10SM CLR 13/09 A3018 RMK AO2 T01280092
KCIR 190615Z AUTO 17005KT 10SM CLR 13/09 A3018 RMK AO2 T01300091
KCIR 190555Z AUTO 17005KT 10SM CLR 13/09 A3018 RMK AO2 T01340092 10168 20112 402250031
KCIR 190535Z AUTO 16005KT 10SM CLR 14/09 A3018 RMK AO2 T01370092
KCIR 190515Z AUTO 18006KT 10SM CLR 14/09 A3018 RMK AO2 T01360093
KCIR 190455Z AUTO 18006KT 10SM CLR 14/09 A3018 RMK AO2 T01370094
KCIR 190435Z AUTO 18006KT 10SM CLR 14/09 A3018 RMK AO2 T01370094
KCIR 190415Z AUTO 18005KT 10SM CLR 14/10 A3019 RMK AO2 T01390095
KCIR 190355Z AUTO 18005KT 10SM CLR 14/10 A3019 RMK AO2 T01370095
KCIR 190335Z AUTO 17004KT 10SM CLR 14/10 A3019 RMK AO2 T01360095
KCIR 190315Z AUTO 16003KT 10SM CLR 13/10 A3018 RMK AO2 T01290095
KCIR 190255Z AUTO 17003KT 10SM CLR 12/09 A3018 RMK AO2 T01230093
KCIR 190235Z AUTO 00000KT 10SM CLR 13/10 A3019 RMK AO2 T01290100
KCIR 190215Z AUTO 17004KT 10SM CLR 14/10 A3018 RMK AO2 T01350101
KCIR 190155Z AUTO 15003KT 10SM CLR 12/10 A3018 RMK AO2 T01180096
KCIR 190135Z AUTO 14003KT 10SM CLR 12/10 A3019 RMK AO2 T01190096
KCIR 190115Z AUTO 16003KT 10SM CLR 12/10 A3019 RMK AO2 T01150097
KCIR 190055Z AUTO 19003KT 10SM CLR 14/10 A3019 RMK AO2 T01380100
KCIR 190035Z AUTO 00000KT 10SM CLR 14/10 A3019 RMK AO2 T01370096
KCIR 190015Z AUTO 18003KT 10SM CLR 15/10 A3018 RMK AO2 T01500099
KCIR 182355Z AUTO 00000KT 10SM CLR 16/10 A3017 RMK AO2 T01570099 10225 20155
KCIR 182335Z AUTO 18004KT 10SM CLR 17/10 A3017 RMK AO2 T01690098
KCIR 182315Z AUTO 18003KT 10SM CLR 18/10 A3017 RMK AO2 T01780100
KCIR 182255Z AUTO 16005KT 10SM CLR 19/10 A3017 RMK AO2 T01940102
KCIR 182235Z AUTO 18005KT 10SM CLR 21/10 A3017 RMK AO2 T02050102
KCIR 182215Z AUTO 17007KT 10SM CLR 21/10 A3017 RMK AO2 T02100101
KCIR 182155Z AUTO 16006KT 10SM CLR 21/10 A3017 RMK AO2 T02130099
KCIR 182135Z AUTO 16008KT 10SM CLR 22/09 A3017 RMK AO2 T02210094
KCIR 182115Z AUTO 19007KT 10SM CLR 22/10 A3018 RMK AO2 T02220096
KCIR 182055Z AUTO 16012KT 10SM CLR 22/09 A3017 RMK AO2 T02200089
KCIR 182035Z AUTO 17009KT 10SM CLR 22/09 A3017 RMK AO2 T02220094
KCIR 182010Z AUTO 16010G14KT 10SM CLR 23/09 A3017 RMK AO2 T02250090
KCIR 181955Z AUTO 17007KT 10SM CLR 22/09 A3018 RMK AO2 T02220087
KCIR 181935Z AUTO 18006KT 10SM CLR 22/09 A3018 RMK AO2 T02210085
KCIR 181915Z AUTO 19006KT 10SM CLR 22/09 A3020 RMK AO2 T02170087
KCIR 181855Z AUTO 20007KT 10SM CLR 22/09 A3020 RMK AO2 T02180085
KCIR 181835Z AUTO 21006KT 10SM CLR 21/09 A3021 RMK AO2 T02130086
KCIR 181815Z AUTO 18007KT 10SM CLR 21/09 A3022 RMK AO2 T02130085
KCIR 181755Z AUTO 22007KT 10SM CLR 21/08 A3023 RMK AO2 T02120083 10212 20031
KCIR 181735Z AUTO 22008KT 10SM CLR 21/09 A3024 RMK AO2 T02080087
KCIR 181715Z AUTO 20006KT 10SM CLR 21/09 A3025 RMK AO2 T02050091
KCIR 181655Z AUTO 19007KT 10SM CLR 20/09 A3026 RMK AO2 T02010092
KCIR 181635Z AUTO 22011KT 10SM CLR 20/09 A3027 RMK AO2 T01950093
KCIR 181615Z AUTO 19005G08KT 10SM CLR 19/10 A3027 RMK AO2 T01910099
KCIR 181555Z AUTO 20008KT 10SM CLR 18/10 A3028 RMK AO2 T01800100
KCIR 181535Z AUTO 19004KT 10SM CLR 17/10 A3028 RMK AO2 T01680100
KCIR 181515Z AUTO 18005KT 10SM CLR 16/10 A3028 RMK AO2 T01560100
KCIR 181455Z AUTO 18006KT 10SM CLR 15/10 A3028 RMK AO2 T01460098
KCIR 181435Z AUTO 18005KT 10SM CLR 14/10 A3028 RMK AO2 T01370097
KCIR 181415Z AUTO 17004KT 10SM CLR 12/10 A3028 RMK AO2 T01240097
KCIR 181355Z AUTO 00000KT 10SM CLR 11/09 A3027 RMK AO2 T01050092
KCIR 181335Z AUTO 00000KT 10SM CLR 10/10 A3027 RMK AO2 T00960096
KCIR 181315Z AUTO 00000KT 10SM CLR 08/08 A3026 RMK AO2 T00800080
KCIR 181255Z AUTO 00000KT 10SM CLR 05/05 A3026 RMK AO2 T00530053
KCIR 181235Z AUTO 00000KT 3SM BR CLR 04/04 A3025 RMK AO2 T00360036
KCIR 181215Z AUTO 00000KT 7SM CLR 03/03 A3025 RMK AO2 T00310031
KCIR 181155Z AUTO 34003KT 3/4SM BR VV005 03/03 A3025 RMK AO2 T00330033 10054 20032
KCIR 181135Z AUTO 00000KT 7SM CLR 04/04 A3024 RMK AO2 T00390039
KCIR 181115Z AUTO 00000KT 10SM CLR 04/04 A3024 RMK AO2 T00360036
KCIR 181055Z AUTO 00000KT 10SM CLR 04/04 A3024 RMK AO2 T00360036
KCIR 181035Z AUTO 00000KT 10SM CLR 04/04 A3024 RMK AO2 T00380038
KCIR 181015Z AUTO 00000KT 2 1/2SM BR CLR 04/04 A3023 RMK AO2 VIS 3/4V5 T00410041
KCIR 180955Z AUTO 00000KT 1 1/4SM BR VV007 04/04 A3023 RMK AO2 T00380038
KCIR 180935Z AUTO 00000KT 10SM CLR 04/04 A3023 RMK AO2 T00430043
KCIR 180915Z AUTO 00000KT 3SM BR CLR 04/04 A3023 RMK AO2 T00350035
KCIR 180855Z AUTO 00000KT 1 1/2SM BR VV007 04/04 A3023 RMK AO2 VIS 1/2V5 T00440044
KCIR 180835Z AUTO 00000KT 1 1/2SM BR VV007 04/04 A3023 RMK AO2 VIS 1V5 T00410041
KCIR 180815Z AUTO 00000KT 1 1/4SM BR VV007 05/05 A3023 RMK AO2 VIS 1/2V5 T00480048
KCIR 180755Z AUTO 00000KT 3/4SM BR BKN002 05/05 A3023 RMK AO2 T00520052
KCIR 180735Z AUTO 00000KT 1/2SM FG BKN002 05/05 A3024 RMK AO2 T00510051
KCIR 180715Z AUTO 00000KT 3/4SM BR VV005 05/05 A3024 RMK AO2 T00490049
KCIR 180655Z AUTO 00000KT 1SM BR VV007 05/05 A3023 RMK AO2 T00450045
KCIR 180635Z AUTO 00000KT 10SM CLR 05/05 A3023 RMK AO2 T00450045
KCIR 180615Z AUTO 00000KT 1SM BR VV007 05/05 A3023 RMK AO2 VIS 1/2V5 T00510051
KCIR 180555Z AUTO 00000KT 1SM BR VV007 05/05 A3023 RMK AO2 T00510051 10113 20046 401970019
KCIR 180535Z AUTO 00000KT 2SM BR CLR 05/05 A3023 RMK AO2 T00520052
KCIR 180515Z AUTO 00000KT 5SM BR CLR 06/06 A3024 RMK AO2 T00580058
KCIR 180455Z AUTO 00000KT 3SM BR CLR 06/06 A3024 RMK AO2 T00580058
KCIR 180435Z AUTO 00000KT 1SM BR BKN002 06/06 A3024 RMK AO2 T00610061
KCIR 180415Z AUTO 00000KT 1/4SM FG OVC002 06/06 A3025 RMK AO2 T00610061
KCIR 180355Z AUTO 00000KT 1/2SM FG VV005 07/07 A3025 RMK AO2 T00650065
KCIR 180335Z AUTO 00000KT 3/4SM BR VV005 07/07 A3025 RMK AO2 T00710071
KCIR 180315Z AUTO 00000KT 10SM CLR 07/07 A3025 RMK AO2 T00650065
KCIR 180255Z AUTO 00000KT 10SM CLR 07/07 A3025 RMK AO2 T00710071
KCIR 180235Z AUTO 00000KT 5SM BR CLR 08/08 A3025 RMK AO2 T00750075
KCIR 180215Z AUTO 00000KT 10SM CLR 08/08 A3025 RMK AO2 T00790079
KCIR 180155Z AUTO 00000KT 10SM CLR 08/08 A3024 RMK AO2 T00790076
KCIR 180135Z AUTO 00000KT 10SM CLR 09/08 A3024 RMK AO2 T00850079
KCIR 180115Z AUTO 00000KT 5SM BR CLR 08/08 A3024 RMK AO2 T00810076
KCIR 180055Z AUTO 00000KT 7SM CLR 09/08 A3024 RMK AO2 T00890079
KCIR 180030Z AUTO 00000KT 10SM CLR 11/08 A3024 RMK AO2 T01060083
KCIR 180015Z AUTO 00000KT 10SM CLR 11/09 A3023 RMK AO2 T01090085
KCIR 172355Z AUTO 00000KT 10SM CLR 11/09 A3023 RMK AO2 T01120086 10197 20111
KCIR 172335Z AUTO 00000KT 10SM CLR 12/09 A3023 RMK AO2 T01230085
KCIR 172315Z AUTO 00000KT 10SM CLR 14/09 A3023 RMK AO2 T01350088
KCIR 172255Z AUTO 00000KT 7SM CLR 17/09 A3023 RMK AO2 T01670087
KCIR 172235Z AUTO 00000KT 7SM CLR 19/07 A3023 RMK AO2 T01880065
KCIR 172215Z AUTO 00000KT 5SM HZ CLR 19/06 A3023 RMK AO2 T01910060
KCIR 172155Z AUTO 00000KT 10SM CLR 18/07 A3024 RMK AO2 T01780073
KCIR 172135Z AUTO 06003KT 3SM HZ CLR 19/06 A3024 RMK AO2 T01890059
KCIR 172115Z AUTO 06003KT 4SM HZ CLR 20/06 A3024 RMK AO2 T01950058
KCIR 172055Z AUTO 12003KT 10SM CLR 19/06 A3025 RMK AO2 T01860056
KCIR 172035Z AUTO 00000KT 5SM HZ CLR 18/05 A3025 RMK AO2 T01830052
KCIR 172015Z AUTO 00000KT 7SM CLR 20/06 A3026 RMK AO2 T01970061
KCIR 171955Z AUTO 20004KT 5SM HZ CLR 19/06 A3026 RMK AO2 T01900064
KCIR 171935Z AUTO 13003KT 1 3/4SM HZ VV007 18/05 A3027 RMK AO2 T01840053
KCIR 171915Z AUTO 11003KT 1 1/2SM HZ VV007 19/06 A3027 RMK AO2 T01850055